Time;durP1;ratioP1;P1;durP2;ratioP2;P2;SDS_P1;SDS_P2;PMS_P1;PMS_P2;Temp;Humidity;BMP_temperature;BMP_pressure;BME280_temperature;BME280_humidity;BME280_pressure;Samples;Min_cycle;Max_cycle;Signal;HPM_P1;HPM_P2
2023/07/20 00:01:13;;;;;;;2.70;1.42;;;15.20;99.90;;;;;;5016987;28;20069;-84
2023/07/20 00:03:39;;;;;;;2.88;1.90;;;15.20;99.90;;;;;;5027820;28;20042;-85
2023/07/20 00:06:05;;;;;;;2.40;1.40;;;15.30;99.90;;;;;;5014603;28;20042;-85
2023/07/20 00:08:31;;;;;;;2.13;1.33;;;15.30;99.90;;;;;;5012924;28;20098;-85
2023/07/20 00:10:56;;;;;;;1.95;1.27;;;15.20;99.90;;;;;;5022055;28;20435;-85
2023/07/20 00:13:22;;;;;;;2.25;1.52;;;15.20;99.90;;;;;;5019566;28;20513;-85
2023/07/20 00:15:48;;;;;;;2.60;1.35;;;15.10;99.90;;;;;;5018296;28;20115;-85
2023/07/20 00:18:14;;;;;;;3.08;1.83;;;15.10;99.90;;;;;;5012844;28;20041;-85
2023/07/20 00:20:39;;;;;;;2.55;1.45;;;15.10;99.90;;;;;;5018155;28;20037;-85
2023/07/20 00:23:05;;;;;;;2.42;2.17;;;15.10;99.90;;;;;;5024556;28;20073;-86
2023/07/20 00:25:31;;;;;;;2.38;1.25;;;15.00;99.90;;;;;;5011040;28;20360;-84
2023/07/20 00:27:57;;;;;;;3.15;2.33;;;15.00;99.90;;;;;;5017188;28;20049;-85
2023/07/20 00:30:23;;;;;;;2.83;1.45;;;15.00;99.90;;;;;;5023159;28;20054;-85
2023/07/20 00:32:48;;;;;;;2.45;1.60;;;15.00;99.90;;;;;;5013784;28;20135;-84
2023/07/20 00:35:14;;;;;;;3.75;1.60;;;15.00;99.90;;;;;;5024366;28;20049;-85
2023/07/20 00:37:40;;;;;;;2.47;1.50;;;15.00;99.90;;;;;;5027140;28;20164;-85
2023/07/20 00:40:09;;;;;;;2.38;1.50;;;15.00;99.90;;;;;;5021213;28;20038;-85
2023/07/20 00:42:35;;;;;;;2.92;1.98;;;14.90;99.90;;;;;;5016365;28;20037;-86
2023/07/20 00:45:01;;;;;;;2.80;2.03;;;15.00;99.90;;;;;;5015692;28;20044;-85
2023/07/20 00:47:27;;;;;;;2.63;1.45;;;14.90;99.90;;;;;;5019562;28;20030;-86
2023/07/20 00:49:54;;;;;;;3.88;1.67;;;14.90;99.90;;;;;;5016178;28;20080;-86
2023/07/20 00:52:23;;;;;;;2.50;1.50;;;14.90;99.90;;;;;;5015879;28;20117;-85
2023/07/20 00:54:49;;;;;;;3.00;1.67;;;14.80;99.90;;;;;;5016083;28;20379;-86
2023/07/20 00:57:18;;;;;;;2.10;1.30;;;14.80;99.90;;;;;;5026383;28;20077;-85
2023/07/20 00:59:44;;;;;;;3.05;1.67;;;14.80;99.90;;;;;;5035589;28;20037;-85
2023/07/20 01:02:10;;;;;;;2.83;1.50;;;14.80;99.90;;;;;;5027856;28;20494;-84
2023/07/20 01:04:36;;;;;;;2.08;1.40;;;14.80;99.90;;;;;;5015775;28;20113;-86
2023/07/20 01:07:20;;;;;;;2.20;1.60;;;14.80;99.90;;;;;;5015837;28;20046;-86
2023/07/20 01:09:54;;;;;;;2.33;1.67;;;14.80;99.90;;;;;;5016050;28;20042;-85
2023/07/20 01:12:32;;;;;;;2.85;1.60;;;14.80;99.90;;;;;;5024438;28;20069;-85
2023/07/20 01:14:58;;;;;;;2.80;1.65;;;14.80;99.90;;;;;;5015611;28;20041;-84
2023/07/20 01:17:24;;;;;;;2.38;1.60;;;14.80;99.90;;;;;;4982350;28;20414;-85
2023/07/20 01:19:50;;;;;;;2.75;1.67;;;14.80;99.90;;;;;;5014609;28;20042;-85
2023/07/20 01:22:34;;;;;;;2.67;1.50;;;14.80;99.90;;;;;;5032191;28;20426;-84
2023/07/20 01:25:23;;;;;;;2.17;1.35;;;14.80;99.90;;;;;;5014597;28;20033;-85
2023/07/20 01:28:04;;;;;;;2.10;1.50;;;14.70;99.90;;;;;;5003280;28;20041;-86
2023/07/20 01:30:43;;;;;;;2.13;1.52;;;14.70;99.90;;;;;;5034843;28;20421;-86
2023/07/20 01:33:11;;;;;;;2.55;1.52;;;14.70;99.90;;;;;;5050684;28;20041;-85
2023/07/20 01:35:40;;;;;;;3.05;1.60;;;14.60;99.90;;;;;;5033956;28;20474;-85
2023/07/20 01:38:07;;;;;;;2.35;1.50;;;14.70;99.90;;;;;;5035144;28;20049;-84
2023/07/20 01:40:34;;;;;;;2.40;1.48;;;14.70;99.90;;;;;;5033582;28;20049;-86
2023/07/20 01:42:59;;;;;;;2.17;1.20;;;14.70;99.90;;;;;;5026980;28;20052;-85
2023/07/20 01:45:26;;;;;;;3.22;1.42;;;14.60;99.90;;;;;;5013434;28;20120;-85
2023/07/20 01:47:52;;;;;;;2.67;1.50;;;14.60;99.90;;;;;;5015065;28;20050;-86
2023/07/20 01:50:18;;;;;;;1.98;1.30;;;14.50;99.90;;;;;;5015012;28;20426;-85
2023/07/20 01:52:43;;;;;;;2.42;1.60;;;14.50;99.90;;;;;;5014942;28;20045;-84
2023/07/20 01:55:09;;;;;;;1.80;1.15;;;14.40;99.90;;;;;;5015414;28;20053;-85
2023/07/20 01:57:35;;;;;;;2.15;1.40;;;14.40;99.90;;;;;;5034656;28;20052;-85
2023/07/20 02:00:01;;;;;;;2.30;1.38;;;14.40;99.90;;;;;;5034612;28;20112;-85
2023/07/20 02:02:28;;;;;;;2.13;1.27;;;14.30;99.90;;;;;;5050028;28;20076;-83
2023/07/20 02:04:53;;;;;;;3.00;1.40;;;14.30;99.90;;;;;;5027496;28;20045;-86
2023/07/20 02:07:19;;;;;;;2.42;1.50;;;14.20;99.90;;;;;;5022202;28;20051;-85
2023/07/20 02:09:45;;;;;;;2.58;1.65;;;14.10;99.90;;;;;;5024788;28;20129;-82
2023/07/20 02:12:10;;;;;;;2.42;1.60;;;14.00;99.90;;;;;;5014681;28;20053;-84
2023/07/20 02:14:36;;;;;;;2.28;1.50;;;14.00;99.90;;;;;;5014484;28;20458;-85
2023/07/20 02:17:02;;;;;;;3.33;1.60;;;13.90;99.90;;;;;;5014365;28;20046;-85
2023/07/20 02:19:29;;;;;;;2.08;1.40;;;13.80;99.90;;;;;;5021507;28;20128;-85
2023/07/20 02:21:55;;;;;;;2.10;1.40;;;13.70;99.90;;;;;;5014536;28;20046;-85
2023/07/20 02:24:21;;;;;;;3.25;1.50;;;13.60;99.90;;;;;;5013411;28;20075;-84
2023/07/20 02:26:46;;;;;;;2.47;1.60;;;13.50;99.90;;;;;;5014631;28;20037;-86
2023/07/20 02:29:12;;;;;;;2.38;1.77;;;13.50;99.90;;;;;;5013394;28;20049;-85
2023/07/20 02:31:39;;;;;;;2.40;1.50;;;13.40;99.90;;;;;;5012874;28;20046;-85
2023/07/20 02:34:08;;;;;;;2.17;1.60;;;13.40;99.90;;;;;;5013388;28;20181;-85
2023/07/20 02:36:35;;;;;;;3.97;1.98;;;13.30;99.90;;;;;;5008676;28;20128;-85
2023/07/20 02:39:03;;;;;;;2.63;1.73;;;13.20;99.90;;;;;;5036597;28;20120;-85
2023/07/20 02:41:33;;;;;;;2.67;1.70;;;13.20;99.90;;;;;;5022286;28;20065;-85
2023/07/20 02:43:58;;;;;;;2.70;1.80;;;13.10;99.90;;;;;;5024842;28;20037;-85
2023/07/20 02:46:24;;;;;;;2.55;1.77;;;13.00;99.90;;;;;;5013846;28;20042;-86
2023/07/20 02:48:50;;;;;;;3.28;2.10;;;12.90;99.90;;;;;;5014445;28;20042;-86
2023/07/20 02:51:15;;;;;;;2.85;2.13;;;12.90;99.90;;;;;;5014556;28;20544;-85
2023/07/20 02:53:41;;;;;;;2.45;1.88;;;12.80;99.90;;;;;;5021251;28;20063;-85
2023/07/20 02:56:07;;;;;;;3.70;2.13;;;12.70;99.90;;;;;;5025285;28;20042;-83
2023/07/20 02:58:36;;;;;;;2.80;2.00;;;12.70;99.90;;;;;;5014287;28;20059;-85
2023/07/20 03:01:03;;;;;;;3.42;2.05;;;12.60;99.90;;;;;;5024830;28;20038;-84
2023/07/20 03:03:28;;;;;;;3.10;2.28;;;12.60;99.90;;;;;;5033551;28;20037;-84
2023/07/20 03:05:55;;;;;;;3.75;2.20;;;12.60;99.90;;;;;;5033677;28;20080;-84
2023/07/20 03:08:21;;;;;;;3.85;2.50;;;12.60;99.90;;;;;;5048996;28;20441;-83
2023/07/20 03:10:47;;;;;;;3.50;2.50;;;12.50;99.90;;;;;;5002977;28;20129;-84
2023/07/20 03:13:14;;;;;;;4.55;2.50;;;12.50;99.90;;;;;;4992200;28;20128;-84
2023/07/20 03:15:39;;;;;;;4.72;2.90;;;12.40;99.90;;;;;;5024554;28;20498;-84
2023/07/20 03:18:05;;;;;;;10.52;3.55;;;12.40;99.90;;;;;;5015380;28;20091;-84
2023/07/20 03:20:31;;;;;;;5.78;3.63;;;12.40;99.90;;;;;;5027776;28;20038;-84
2023/07/20 03:22:57;;;;;;;20.15;4.35;;;12.40;99.90;;;;;;4995942;28;20050;-83
2023/07/20 03:25:23;;;;;;;9.15;3.67;;;12.30;99.90;;;;;;5019400;28;20099;-84
2023/07/20 03:27:48;;;;;;;4.38;3.25;;;12.30;99.90;;;;;;5022052;28;20041;-83
2023/07/20 03:30:14;;;;;;;5.60;3.50;;;12.30;99.90;;;;;;5021404;28;20433;-82
2023/07/20 03:32:40;;;;;;;5.15;3.70;;;12.30;99.90;;;;;;5018833;28;20050;-84
2023/07/20 03:35:06;;;;;;;7.22;3.63;;;12.30;99.90;;;;;;5012611;28;20404;-84
2023/07/20 03:37:34;;;;;;;6.95;3.90;;;12.30;99.90;;;;;;5025688;28;20385;-84
2023/07/20 03:40:00;;;;;;;5.03;3.67;;;12.30;99.90;;;;;;5031599;28;20048;-85
2023/07/20 03:42:26;;;;;;;4.95;3.60;;;12.30;99.90;;;;;;5043612;28;20312;-86
2023/07/20 03:44:51;;;;;;;6.68;3.83;;;12.30;99.90;;;;;;5027558;28;20045;-84
2023/07/20 03:47:17;;;;;;;5.65;3.58;;;12.30;99.90;;;;;;5019607;28;20042;-84
2023/07/20 03:49:43;;;;;;;4.93;3.45;;;12.30;99.90;;;;;;5012879;28;20045;-83
2023/07/20 03:52:08;;;;;;;5.18;3.28;;;12.30;99.90;;;;;;5012925;28;20120;-85
2023/07/20 03:54:34;;;;;;;5.00;3.50;;;12.30;99.90;;;;;;5001239;28;20061;-86
2023/07/20 03:57:00;;;;;;;4.97;3.40;;;12.20;99.90;;;;;;5032998;28;20537;-84
2023/07/20 03:59:26;;;;;;;5.63;3.40;;;12.20;99.90;;;;;;5031722;28;20041;-84
2023/07/20 04:01:52;;;;;;;4.88;3.17;;;12.20;99.90;;;;;;5017381;28;20495;-85
2023/07/20 04:04:18;;;;;;;5.25;3.40;;;12.20;99.90;;;;;;5023625;28;20100;-85
2023/07/20 04:06:46;;;;;;;4.80;3.25;;;12.20;99.90;;;;;;5022935;28;20415;-86
2023/07/20 04:09:12;;;;;;;5.15;3.42;;;12.20;99.90;;;;;;5018088;28;20096;-85
2023/07/20 04:11:38;;;;;;;5.07;3.15;;;12.20;99.90;;;;;;5019373;28;20056;-86
2023/07/20 04:14:04;;;;;;;4.65;2.60;;;12.10;99.90;;;;;;5017273;28;20113;-85
2023/07/20 04:16:30;;;;;;;5.25;3.25;;;12.10;99.90;;;;;;5013425;28;20049;-86
2023/07/20 04:18:56;;;;;;;3.78;3.00;;;12.10;99.90;;;;;;5036609;28;20106;-85
2023/07/20 04:21:23;;;;;;;4.28;3.10;;;12.20;99.90;;;;;;5052233;28;20038;-85
2023/07/20 04:23:49;;;;;;;5.05;3.13;;;12.20;99.90;;;;;;5034557;28;20038;-85
2023/07/20 04:26:14;;;;;;;7.60;3.47;;;12.20;99.90;;;;;;5031948;28;20049;-87
2023/07/20 04:28:42;;;;;;;3.92;2.92;;;12.20;99.90;;;;;;5034770;28;20124;-86
2023/07/20 04:31:12;;;;;;;4.38;3.28;;;12.20;99.90;;;;;;5019300;28;20113;-87
2023/07/20 04:33:39;;;;;;;4.53;3.10;;;12.20;99.90;;;;;;5020377;28;20138;-86
2023/07/20 04:36:04;;;;;;;3.65;2.60;;;12.30;99.90;;;;;;5021482;28;20033;-86
2023/07/20 04:38:30;;;;;;;5.28;2.72;;;12.30;99.90;;;;;;5024176;28;20494;-87
2023/07/20 04:40:56;;;;;;;4.45;3.22;;;12.40;99.90;;;;;;5016011;28;20382;-87
2023/07/20 04:43:22;;;;;;;5.97;3.13;;;12.40;99.90;;;;;;5027725;28;20037;-86
2023/07/20 04:45:48;;;;;;;4.57;3.20;;;12.50;99.90;;;;;;5035807;28;20394;-86
2023/07/20 04:48:15;;;;;;;4.40;3.20;;;12.60;99.90;;;;;;5016435;28;20048;-85
2023/07/20 04:50:42;;;;;;;5.03;3.08;;;12.60;99.90;;;;;;5015132;28;20081;-83
2023/07/20 04:53:11;;;;;;;4.00;3.05;;;12.70;99.90;;;;;;5015333;28;20081;-84
2023/07/20 04:55:39;;;;;;;4.40;3.38;;;12.80;99.90;;;;;;5016105;28;20136;-82
2023/07/20 04:58:05;;;;;;;4.65;2.92;;;12.80;99.90;;;;;;5015572;28;20049;-84
2023/07/20 05:00:33;;;;;;;5.13;2.90;;;12.90;99.90;;;;;;5025338;28;20040;-86
2023/07/20 05:02:59;;;;;;;5.53;2.90;;;13.00;99.90;;;;;;5035747;28;20048;-84
2023/07/20 05:05:25;;;;;;;4.68;2.90;;;13.10;99.90;;;;;;5035301;28;20386;-86
2023/07/20 05:07:51;;;;;;;4.05;2.90;;;13.10;99.90;;;;;;5034743;28;20037;-84
2023/07/20 05:10:18;;;;;;;4.15;2.60;;;13.30;99.90;;;;;;5031891;28;20091;-85
2023/07/20 05:12:43;;;;;;;3.42;2.78;;;13.30;99.90;;;;;;5035649;28;20045;-86
2023/07/20 05:15:09;;;;;;;3.92;2.53;;;13.40;99.90;;;;;;5039945;28;20560;-85
2023/07/20 05:17:35;;;;;;;3.78;2.05;;;13.40;99.90;;;;;;5014384;28;20049;-85
2023/07/20 05:20:01;;;;;;;5.53;2.53;;;13.50;99.90;;;;;;5013536;28;20042;-85
2023/07/20 05:22:26;;;;;;;3.75;2.20;;;13.60;99.90;;;;;;5009973;28;20038;-84
2023/07/20 05:24:52;;;;;;;3.83;2.17;;;13.70;99.90;;;;;;5034000;28;20041;-84
2023/07/20 05:27:18;;;;;;;3.40;2.25;;;13.80;99.90;;;;;;5040934;28;20495;-86
2023/07/20 05:29:46;;;;;;;2.60;1.50;;;13.90;99.90;;;;;;5017817;28;20045;-83
2023/07/20 05:32:15;;;;;;;4.13;2.20;;;14.00;99.90;;;;;;5022149;28;20543;-85
2023/07/20 05:34:41;;;;;;;3.13;1.50;;;14.10;99.90;;;;;;5015107;28;20482;-85
2023/07/20 05:37:06;;;;;;;3.00;1.75;;;14.10;99.90;;;;;;5031956;28;20075;-84
2023/07/20 05:39:33;;;;;;;3.70;1.88;;;14.20;99.90;;;;;;5030773;28;20034;-83
2023/07/20 05:41:59;;;;;;;3.55;1.77;;;14.30;99.90;;;;;;5031600;28;20044;-83
2023/07/20 05:44:24;;;;;;;1.67;1.00;;;14.30;99.90;;;;;;5031054;28;20029;-81
2023/07/20 05:46:50;;;;;;;2.10;1.23;;;14.40;99.90;;;;;;5023597;28;20099;-82
2023/07/20 05:49:16;;;;;;;2.42;1.10;;;14.50;99.90;;;;;;5033775;28;20063;-81
2023/07/20 05:51:41;;;;;;;2.65;1.05;;;14.60;99.90;;;;;;5018912;28;20042;-83
2023/07/20 05:54:07;;;;;;;1.80;0.95;;;14.70;99.90;;;;;;5015142;28;20053;-82
2023/07/20 05:56:33;;;;;;;1.98;1.15;;;14.70;99.90;;;;;;5014215;28;20433;-82
2023/07/20 05:58:59;;;;;;;1.98;0.80;;;14.80;99.90;;;;;;5024883;28;20045;-80
2023/07/20 06:01:27;;;;;;;2.45;1.02;;;14.90;99.90;;;;;;5040445;28;20453;-82
2023/07/20 06:03:53;;;;;;;1.40;0.80;;;14.90;99.90;;;;;;5034354;28;20493;-82
2023/07/20 06:06:19;;;;;;;2.47;1.05;;;15.00;99.90;;;;;;5023323;28;20053;-82
2023/07/20 06:08:45;;;;;;;1.45;0.90;;;15.10;99.90;;;;;;5014890;28;20037;-81
2023/07/20 06:11:11;;;;;;;1.65;0.90;;;15.20;99.90;;;;;;5032837;28;20045;-81
2023/07/20 06:13:36;;;;;;;2.28;1.00;;;15.30;99.90;;;;;;5030063;28;20117;-77
2023/07/20 06:16:03;;;;;;;1.60;1.00;;;15.30;99.90;;;;;;5031177;28;20045;-77
2023/07/20 06:18:30;;;;;;;2.30;1.13;;;15.40;99.90;;;;;;5018856;28;20069;-77
2023/07/20 06:20:56;;;;;;;1.77;0.90;;;15.40;99.90;;;;;;4996883;28;20050;-76
2023/07/20 06:23:22;;;;;;;1.38;0.80;;;15.50;99.90;;;;;;5014670;28;20041;-75
2023/07/20 06:25:48;;;;;;;1.77;1.00;;;15.60;99.90;;;;;;5028158;28;20037;-75
2023/07/20 06:28:14;;;;;;;1.40;0.80;;;15.70;99.90;;;;;;5014481;28;20045;-76
2023/07/20 06:30:40;;;;;;;2.03;1.00;;;15.70;99.90;;;;;;5012952;28;20058;-77
2023/07/20 06:33:06;;;;;;;2.78;1.00;;;15.70;99.90;;;;;;5021464;28;20108;-77
2023/07/20 06:35:32;;;;;;;2.70;0.93;;;15.80;99.90;;;;;;5023058;28;20046;-76
2023/07/20 06:38:00;;;;;;;1.52;1.00;;;15.80;99.90;;;;;;5025184;28;20050;-76
2023/07/20 06:40:25;;;;;;;2.10;0.98;;;15.80;99.90;;;;;;5013239;28;20121;-76
2023/07/20 06:42:51;;;;;;;1.65;0.90;;;15.90;99.90;;;;;;5014201;28;20175;-77
2023/07/20 06:45:17;;;;;;;1.08;0.70;;;16.00;99.90;;;;;;5013576;28;20046;-77
2023/07/20 06:47:42;;;;;;;1.48;0.77;;;16.00;99.90;;;;;;5014156;28;20048;-77
2023/07/20 06:50:09;;;;;;;2.47;1.00;;;16.00;99.90;;;;;;5013963;28;20037;-77
2023/07/20 06:52:35;;;;;;;1.77;0.95;;;16.00;99.90;;;;;;4985752;28;20046;-77
2023/07/20 06:55:01;;;;;;;1.45;0.80;;;16.10;99.90;;;;;;5048586;28;20056;-78
2023/07/20 06:57:27;;;;;;;3.30;1.00;;;16.20;99.90;;;;;;5033681;28;20045;-77
2023/07/20 06:59:53;;;;;;;2.25;0.80;;;16.30;99.90;;;;;;5048926;28;20454;-78
2023/07/20 07:02:19;;;;;;;1.42;0.65;;;16.50;99.90;;;;;;5033630;28;20041;-76
2023/07/20 07:04:46;;;;;;;1.33;0.70;;;16.60;99.90;;;;;;5033574;28;20416;-76
2023/07/20 07:07:14;;;;;;;3.10;0.88;;;16.70;99.90;;;;;;5031929;28;20037;-77
2023/07/20 07:09:41;;;;;;;1.88;1.00;;;16.70;99.90;;;;;;5033367;28;20422;-77
2023/07/20 07:12:07;;;;;;;1.42;0.73;;;16.70;99.90;;;;;;5034296;28;20391;-77
2023/07/20 07:14:33;;;;;;;2.35;0.80;;;16.60;99.90;;;;;;5031323;28;20491;-75
2023/07/20 07:16:59;;;;;;;3.05;1.00;;;16.50;99.90;;;;;;5024497;28;20057;-78
2023/07/20 07:19:24;;;;;;;1.90;1.10;;;16.40;99.90;;;;;;5028840;28;20069;-76
2023/07/20 07:21:50;;;;;;;1.70;0.80;;;16.50;99.90;;;;;;5025434;28;20038;-74
2023/07/20 07:24:16;;;;;;;1.83;0.77;;;16.50;99.90;;;;;;5024178;28;20041;-78
2023/07/20 07:26:42;;;;;;;3.10;0.95;;;16.50;99.90;;;;;;5017352;28;20042;-78
2023/07/20 07:29:08;;;;;;;2.28;0.80;;;16.70;99.90;;;;;;5021041;28;20048;-76
2023/07/20 07:31:35;;;;;;;1.95;0.70;;;16.80;99.90;;;;;;5016345;28;20042;-77
2023/07/20 07:34:02;;;;;;;3.40;1.00;;;17.10;99.90;;;;;;5006807;28;20063;-77
2023/07/20 07:36:28;;;;;;;2.92;0.70;;;17.30;99.90;;;;;;5023574;28;20120;-77
2023/07/20 07:38:53;;;;;;;1.40;0.60;;;17.50;99.90;;;;;;5011940;28;20120;-74
2023/07/20 07:41:20;;;;;;;2.10;0.73;;;17.60;99.90;;;;;;5016706;28;20049;-77
2023/07/20 07:43:46;;;;;;;1.20;0.65;;;17.50;99.90;;;;;;5012867;28;20120;-76
2023/07/20 07:46:12;;;;;;;1.85;0.70;;;17.20;99.90;;;;;;5035160;28;20125;-77
2023/07/20 07:48:37;;;;;;;1.92;0.80;;;17.10;99.90;;;;;;5006591;28;20461;-75
2023/07/20 07:51:03;;;;;;;2.05;0.88;;;17.10;99.90;;;;;;5028162;28;20117;-75
2023/07/20 07:53:29;;;;;;;2.40;0.70;;;17.20;99.90;;;;;;5027991;28;20044;-76
2023/07/20 07:55:54;;;;;;;1.83;0.73;;;17.40;99.90;;;;;;5013656;28;20100;-75
2023/07/20 07:58:21;;;;;;;1.40;0.70;;;17.40;99.90;;;;;;5031197;28;20510;-75
2023/07/20 08:00:47;;;;;;;1.17;0.70;;;17.50;99.90;;;;;;5029144;28;20041;-77
2023/07/20 08:03:13;;;;;;;2.08;0.57;;;17.70;99.90;;;;;;5017817;28;20435;-78
2023/07/20 08:05:39;;;;;;;3.15;0.70;;;17.80;99.90;;;;;;5026352;28;20029;-73
2023/07/20 08:08:04;;;;;;;1.65;0.68;;;17.90;99.90;;;;;;5012155;28;20050;-75
2023/07/20 08:10:30;;;;;;;2.53;0.75;;;18.00;99.90;;;;;;5033986;28;20048;-73
2023/07/20 08:12:56;;;;;;;2.22;0.60;;;18.10;99.90;;;;;;5011345;28;20092;-74
2023/07/20 08:15:22;;;;;;;1.60;0.70;;;18.30;99.90;;;;;;5020110;28;20532;-74
2023/07/20 08:17:48;;;;;;;1.42;0.70;;;18.40;99.90;;;;;;5019817;28;20046;-80
2023/07/20 08:20:17;;;;;;;0.90;0.50;;;18.50;99.90;;;;;;5031820;28;20049;-73
2023/07/20 08:22:43;;;;;;;1.70;0.63;;;18.20;99.90;;;;;;5021376;28;20230;-73
2023/07/20 08:25:09;;;;;;;2.20;0.73;;;18.00;99.90;;;;;;5033126;28;20100;-72
2023/07/20 08:27:36;;;;;;;1.35;0.52;;;17.80;99.90;;;;;;5011635;28;20125;-74
2023/07/20 08:30:02;;;;;;;2.63;0.73;;;17.60;99.90;;;;;;5010005;28;20374;-71
2023/07/20 08:32:28;;;;;;;1.20;0.68;;;17.70;99.90;;;;;;5018252;28;20543;-76
2023/07/20 08:34:53;;;;;;;1.35;0.70;;;17.90;99.90;;;;;;5017685;28;20034;-72
2023/07/20 08:37:19;;;;;;;4.03;0.82;;;18.20;99.90;;;;;;5023565;28;20037;-74
2023/07/20 08:39:45;;;;;;;1.23;0.60;;;18.50;99.90;;;;;;5016635;28;20033;-77
2023/07/20 08:42:14;;;;;;;1.30;0.55;;;18.60;99.90;;;;;;5019251;28;20387;-74
2023/07/20 08:44:42;;;;;;;3.92;0.70;;;18.30;99.90;;;;;;5014173;28;20100;-73
2023/07/20 08:47:12;;;;;;;1.77;0.70;;;18.00;99.90;;;;;;5010922;28;20100;-74
2023/07/20 08:49:39;;;;;;;2.30;0.80;;;17.70;99.90;;;;;;5018234;28;20064;-74
2023/07/20 08:52:05;;;;;;;2.25;0.80;;;17.80;99.90;;;;;;5029804;28;20053;-73
2023/07/20 08:54:34;;;;;;;1.00;0.60;;;18.00;99.90;;;;;;5027523;28;20077;-72
2023/07/20 08:57:05;;;;;;;1.52;0.65;;;18.30;99.90;;;;;;5027785;28;20049;-75
2023/07/20 08:59:32;;;;;;;1.83;0.63;;;18.70;99.90;;;;;;5025482;28;20038;-77
2023/07/20 09:01:59;;;;;;;1.88;0.70;;;19.00;99.90;;;;;;5023529;28;20121;-73
2023/07/20 09:04:24;;;;;;;1.30;0.60;;;19.20;99.90;;;;;;5023644;28;20037;-74
2023/07/20 09:06:51;;;;;;;2.60;0.68;;;19.10;99.90;;;;;;5019183;28;20092;-74
2023/07/20 09:09:17;;;;;;;1.85;0.68;;;18.80;99.90;;;;;;5029782;28;20061;-73
2023/07/20 09:11:47;;;;;;;1.60;0.77;;;18.60;99.90;;;;;;5017366;28;20387;-76
2023/07/20 09:14:12;;;;;;;1.20;0.70;;;18.70;99.90;;;;;;5026106;28;20104;-74
2023/07/20 09:16:48;;;;;;;3.05;0.60;;;18.80;99.90;;;;;;5028137;28;20042;-75
2023/07/20 09:19:16;;;;;;;2.42;0.80;;;19.10;99.90;;;;;;5014869;28;20045;-77
2023/07/20 09:21:45;;;;;;;1.38;0.65;;;19.20;99.90;;;;;;5020720;28;20077;-76
2023/07/20 09:24:11;;;;;;;2.08;0.68;;;19.30;99.90;;;;;;5022437;28;20210;-75
2023/07/20 09:26:43;;;;;;;1.63;0.70;;;19.30;99.90;;;;;;5009014;28;20091;-75
2023/07/20 09:29:11;;;;;;;1.67;0.70;;;19.50;99.90;;;;;;5014490;28;20081;-73
2023/07/20 09:31:39;;;;;;;1.38;0.60;;;19.60;99.90;;;;;;5028637;28;20064;-75
2023/07/20 09:34:05;;;;;;;1.73;0.70;;;19.70;99.90;;;;;;5021521;28;20044;-75
2023/07/20 09:36:34;;;;;;;2.17;0.63;;;19.70;99.90;;;;;;5021002;28;20419;-72
2023/07/20 09:39:01;;;;;;;1.38;0.70;;;19.70;99.90;;;;;;5019477;28;20060;-78
2023/07/20 09:41:26;;;;;;;1.50;0.60;;;19.80;99.90;;;;;;5013974;28;20045;-73
2023/07/20 09:43:53;;;;;;;2.05;0.80;;;19.90;99.90;;;;;;5024581;28;20038;-74
2023/07/20 09:46:20;;;;;;;1.40;0.60;;;19.90;99.90;;;;;;5024257;28;20308;-75
2023/07/20 09:48:55;;;;;;;1.30;0.70;;;19.90;99.90;;;;;;5026738;28;20516;-73
2023/07/20 09:51:24;;;;;;;1.63;0.60;;;20.10;99.90;;;;;;5032700;28;20378;-74
2023/07/20 09:53:53;;;;;;;1.70;0.60;;;20.10;99.90;;;;;;5032938;28;20183;-73
2023/07/20 09:56:23;;;;;;;2.20;0.70;;;20.10;99.90;;;;;;5032600;28;20102;-74
2023/07/20 09:58:49;;;;;;;1.50;0.70;;;20.30;99.90;;;;;;5048944;28;20128;-75
2023/07/20 10:01:21;;;;;;;2.60;0.70;;;20.40;99.90;;;;;;5033305;28;20172;-77
2023/07/20 10:03:47;;;;;;;1.90;0.70;;;20.40;99.90;;;;;;5033735;28;20072;-75
2023/07/20 10:06:18;;;;;;;2.50;0.70;;;20.50;99.90;;;;;;5032500;28;20042;-69
2023/07/20 10:08:47;;;;;;;1.13;0.52;;;20.60;99.90;;;;;;5032917;28;20045;-72
2023/07/20 10:11:15;;;;;;;1.45;0.70;;;20.50;99.90;;;;;;5033443;28;20051;-72
2023/07/20 10:13:44;;;;;;;1.38;0.65;;;20.30;99.90;;;;;;5032601;28;20077;-72
2023/07/20 10:16:14;;;;;;;0.95;0.60;;;20.30;99.90;;;;;;5029658;28;20045;-73
2023/07/20 10:18:55;;;;;;;1.40;0.60;;;20.30;99.90;;;;;;5031550;28;20103;-72
2023/07/20 10:21:24;;;;;;;1.60;0.70;;;20.60;99.90;;;;;;5022922;28;20567;-74
2023/07/20 10:23:50;;;;;;;2.05;0.70;;;21.00;99.90;;;;;;5031632;28;20052;-74
2023/07/20 10:26:15;;;;;;;2.55;0.60;;;21.10;99.90;;;;;;5032053;28;20037;-75
2023/07/20 10:28:41;;;;;;;1.50;0.52;;;21.10;99.90;;;;;;4995361;28;20077;-71
2023/07/20 10:31:09;;;;;;;1.00;0.50;;;21.10;99.90;;;;;;5018218;28;20359;-72
2023/07/20 10:33:36;;;;;;;1.17;0.60;;;21.10;99.90;;;;;;5023476;28;20120;-70
2023/07/20 10:36:07;;;;;;;2.78;0.60;;;21.00;99.90;;;;;;5026404;28;20052;-73
2023/07/20 10:38:40;;;;;;;1.35;0.60;;;20.80;99.90;;;;;;5019730;28;20404;-72
2023/07/20 10:41:20;;;;;;;2.10;0.70;;;20.60;99.90;;;;;;5011827;28;20042;-72
2023/07/20 10:43:47;;;;;;;1.90;0.60;;;20.50;99.90;;;;;;5012782;28;20052;-73
2023/07/20 10:46:13;;;;;;;1.67;0.65;;;20.20;99.90;;;;;;5011976;28;20038;-74
2023/07/20 10:49:04;;;;;;;3.22;1.10;;;20.20;99.90;;;;;;5013039;28;20056;-74
2023/07/20 10:51:38;;;;;;;2.35;0.70;;;20.20;99.90;;;;;;5012160;28;20046;-75
2023/07/20 10:54:03;;;;;;;1.30;0.70;;;20.20;99.90;;;;;;5012133;28;20458;-77
2023/07/20 10:56:29;;;;;;;1.23;0.65;;;20.30;99.90;;;;;;5012537;28;20165;-74
2023/07/20 10:58:59;;;;;;;1.48;0.70;;;20.30;99.90;;;;;;4995420;28;20050;-73
2023/07/20 11:01:32;;;;;;;3.35;0.82;;;20.40;99.90;;;;;;5011836;28;20052;-74
2023/07/20 11:04:02;;;;;;;1.63;0.70;;;20.60;99.90;;;;;;5021534;28;20080;-75
2023/07/20 11:06:28;;;;;;;1.55;0.63;;;20.70;99.90;;;;;;5030771;28;20127;-73
2023/07/20 11:09:06;;;;;;;1.15;0.55;;;20.70;99.90;;;;;;5030743;28;20556;-74
2023/07/20 11:11:35;;;;;;;2.05;0.80;;;20.60;99.90;;;;;;5032230;28;20049;-75
2023/07/20 11:14:06;;;;;;;1.55;0.70;;;20.30;99.90;;;;;;5032082;28;20055;-74
2023/07/20 11:16:36;;;;;;;1.40;0.70;;;20.20;99.90;;;;;;5031876;28;20374;-73
2023/07/20 11:19:05;;;;;;;2.08;0.70;;;20.00;99.90;;;;;;5014582;28;20045;-72
2023/07/20 11:21:41;;;;;;;1.70;0.60;;;19.90;99.90;;;;;;5031895;28;20291;-71
2023/07/20 11:24:07;;;;;;;1.50;0.63;;;19.90;99.90;;;;;;5031651;28;20084;-73
2023/07/20 11:26:44;;;;;;;2.00;0.75;;;20.00;99.90;;;;;;5045736;28;20045;-73
2023/07/20 11:29:10;;;;;;;1.67;0.75;;;20.00;99.90;;;;;;5012286;28;20042;-72
2023/07/20 11:31:40;;;;;;;2.03;0.80;;;19.80;99.90;;;;;;5021874;28;20130;-73
2023/07/20 11:34:06;;;;;;;1.42;0.73;;;19.60;99.90;;;;;;5047086;28;20048;-72
2023/07/20 11:36:33;;;;;;;1.73;0.98;;;19.50;99.90;;;;;;5026322;28;20042;-72
2023/07/20 11:38:59;;;;;;;1.92;0.73;;;19.60;99.90;;;;;;5011518;28;20049;-72
2023/07/20 11:41:28;;;;;;;1.48;0.80;;;19.70;99.90;;;;;;5011398;28;20403;-73
2023/07/20 11:43:54;;;;;;;2.05;0.90;;;19.70;99.90;;;;;;5010557;28;20041;-73
2023/07/20 11:46:20;;;;;;;1.25;0.70;;;19.80;99.90;;;;;;5010827;28;20046;-73
2023/07/20 11:48:46;;;;;;;2.03;1.40;;;19.80;99.90;;;;;;5011627;28;20125;-71
2023/07/20 11:51:18;;;;;;;2.75;0.90;;;20.10;99.90;;;;;;5011984;28;20056;-72
2023/07/20 11:53:46;;;;;;;1.77;0.90;;;20.30;99.90;;;;;;5011557;28;20069;-72
2023/07/20 11:56:12;;;;;;;2.42;0.82;;;20.50;99.90;;;;;;4994506;28;20115;-71
2023/07/20 11:58:47;;;;;;;1.85;1.02;;;20.60;99.90;;;;;;5010789;28;20046;-72
2023/07/20 12:01:13;;;;;;;1.83;0.60;;;20.70;99.90;;;;;;5035118;28;20053;-73
2023/07/20 12:03:39;;;;;;;2.15;0.90;;;20.70;99.90;;;;;;5031433;28;20053;-74
2023/07/20 12:06:09;;;;;;;2.03;0.90;;;20.80;99.90;;;;;;5029903;28;20363;-74
2023/07/20 12:08:37;;;;;;;1.63;0.60;;;20.70;99.90;;;;;;5031086;28;20068;-74
2023/07/20 12:11:03;;;;;;;2.42;0.70;;;20.40;99.90;;;;;;5031354;28;20089;-74
2023/07/20 12:13:46;;;;;;;1.27;0.70;;;20.20;99.90;;;;;;5031238;28;20084;-77
2023/07/20 12:16:16;;;;;;;2.22;0.80;;;20.10;99.90;;;;;;5030038;28;20037;-75
2023/07/20 12:18:43;;;;;;;1.58;0.80;;;20.30;99.90;;;;;;5030414;28;20050;-72
2023/07/20 12:21:09;;;;;;;1.65;0.82;;;20.30;99.90;;;;;;5031254;28;20037;-74
2023/07/20 12:23:40;;;;;;;1.58;0.70;;;20.40;99.90;;;;;;5029589;28;20128;-74
2023/07/20 12:26:08;;;;;;;1.95;0.85;;;20.70;99.90;;;;;;5030011;28;20041;-77
2023/07/20 12:28:40;;;;;;;1.90;0.95;;;21.00;99.90;;;;;;5032114;28;20045;-76
2023/07/20 12:31:06;;;;;;;1.10;0.70;;;21.40;99.90;;;;;;5034968;28;20474;-75
2023/07/20 12:33:31;;;;;;;1.88;0.70;;;21.60;99.90;;;;;;5034780;28;20045;-76
2023/07/20 12:35:58;;;;;;;2.22;0.90;;;21.70;99.90;;;;;;5035057;28;20049;-74
2023/07/20 12:38:25;;;;;;;1.88;0.75;;;21.70;99.90;;;;;;5025330;28;20092;-74
2023/07/20 12:40:51;;;;;;;1.60;0.80;;;21.70;99.90;;;;;;5035017;28;20042;-79
2023/07/20 12:43:17;;;;;;;1.98;0.95;;;21.80;99.90;;;;;;5034867;28;20056;-75
2023/07/20 12:45:43;;;;;;;2.17;1.10;;;21.90;99.90;;;;;;5034822;28;20103;-75
2023/07/20 12:48:08;;;;;;;2.33;1.10;;;21.90;99.90;;;;;;5035469;28;20061;-74